createdAt,value
2022-11-14T00:01:32.926Z,89.40
2022-11-14T00:04:01.673Z,62.30
2022-11-14T00:06:30.332Z,63.83
2022-11-14T00:08:58.987Z,64.50
2022-11-14T00:11:27.720Z,66.17
2022-11-14T00:13:56.346Z,74.87
2022-11-14T00:16:26.542Z,93.17
2022-11-14T00:18:55.214Z,55.60
2022-11-14T00:21:23.923Z,61.07
2022-11-14T00:23:52.625Z,57.73
2022-11-14T00:26:21.734Z,59.23
2022-11-14T00:28:50.439Z,59.83
2022-11-14T00:31:19.140Z,59.77
2022-11-14T00:33:49.262Z,59.27
2022-11-14T00:36:17.979Z,70.83
2022-11-14T00:38:46.677Z,59.07
2022-11-14T00:41:15.327Z,59.17
2022-11-14T00:43:44.005Z,57.17
2022-11-14T00:46:12.633Z,70.17
2022-11-14T00:48:41.468Z,64.43
2022-11-14T00:51:12.040Z,65.50
2022-11-14T00:53:40.753Z,67.07
2022-11-14T00:56:09.570Z,62.57
2022-11-14T00:58:38.227Z,60.03
2022-11-14T01:01:07.315Z,59.10
2022-11-14T01:03:36.122Z,71.23
2022-11-14T01:06:07.407Z,55.03
2022-11-14T01:08:37.720Z,72.37
2022-11-14T01:11:12.040Z,55.33
2022-11-14T01:13:41.137Z,60.10
2022-11-14T01:16:10.618Z,69.03
2022-11-14T01:18:40.477Z,56.67
2022-11-14T01:21:11.623Z,59.73
2022-11-14T01:23:42.066Z,58.57
2022-11-14T01:26:13.388Z,64.20
2022-11-14T01:28:42.793Z,61.50
2022-11-14T01:31:13.007Z,64.53
2022-11-14T01:33:41.677Z,67.57
2022-11-14T01:36:11.499Z,67.97
2022-11-14T01:38:41.633Z,58.53
2022-11-14T01:41:14.075Z,61.00
2022-11-14T01:43:43.586Z,57.67
2022-11-14T01:46:16.478Z,70.57
2022-11-14T01:48:49.425Z,60.50
2022-11-14T01:51:25.297Z,56.57
2022-11-14T01:53:58.210Z,62.00
2022-11-14T01:56:29.634Z,59.83
2022-11-14T01:59:03.532Z,71.77
2022-11-14T02:01:35.450Z,69.67
2022-11-14T02:04:06.931Z,73.70
2022-11-14T02:06:37.489Z,75.67
2022-11-14T02:09:09.175Z,67.27
2022-11-14T02:11:41.438Z,72.93
2022-11-14T02:14:10.238Z,88.00
2022-11-14T02:16:40.927Z,93.10
2022-11-14T02:19:10.425Z,70.03
2022-11-14T02:21:40.491Z,80.77
2022-11-14T02:24:11.568Z,94.83
2022-11-14T02:26:40.641Z,76.43
2022-11-14T02:29:11.155Z,73.73
2022-11-14T02:31:40.281Z,74.93
2022-11-14T02:34:08.959Z,87.83
2022-11-14T02:36:37.618Z,82.50
2022-11-14T02:39:07.798Z,79.30
2022-11-14T02:41:36.474Z,98.37
2022-11-14T02:44:05.482Z,75.10
2022-11-14T02:46:34.144Z,80.00
2022-11-14T02:49:02.787Z,84.17
2022-11-14T02:51:31.382Z,93.20
2022-11-14T02:54:00.003Z,78.63
2022-11-14T02:56:30.650Z,73.63
2022-11-14T02:58:59.380Z,79.83
2022-11-14T03:01:28.080Z,80.47
2022-11-14T03:03:56.789Z,87.50
2022-11-14T03:06:25.917Z,81.53
2022-11-14T03:08:54.555Z,76.23
2022-11-14T03:11:23.289Z,84.47
2022-11-14T03:13:53.382Z,81.10
2022-11-14T03:16:22.043Z,80.50
2022-11-14T03:18:50.718Z,82.63
2022-11-14T03:21:21.830Z,98.63
2022-11-14T03:23:50.786Z,78.23
2022-11-14T03:26:20.736Z,76.87
2022-11-14T03:28:49.320Z,74.50
2022-11-14T03:31:19.362Z,72.63
2022-11-14T03:33:48.043Z,88.63
2022-11-14T03:36:16.767Z,79.17
2022-11-14T03:38:45.515Z,74.57
2022-11-14T03:41:14.110Z,80.43
2022-11-14T03:43:42.904Z,82.40
2022-11-14T03:46:11.510Z,84.13
2022-11-14T03:48:41.600Z,73.87
2022-11-14T03:51:10.214Z,75.87
2022-11-14T03:53:38.934Z,81.93
2022-11-14T03:56:08.055Z,76.97
2022-11-14T03:58:36.749Z,74.27
2022-11-14T04:01:05.545Z,76.10
2022-11-14T04:03:34.357Z,75.37
2022-11-14T04:06:04.618Z,80.00
2022-11-14T04:08:34.522Z,81.20
2022-11-14T04:11:03.174Z,75.90
2022-11-14T04:13:31.835Z,79.70
2022-11-14T04:16:01.329Z,83.33
2022-11-14T04:18:30.482Z,82.13
2022-11-14T04:20:59.478Z,84.27
2022-11-14T04:23:29.538Z,87.10
2022-11-14T04:25:58.371Z,82.90
2022-11-14T04:28:27.278Z,77.03
2022-11-14T04:30:56.195Z,82.67
2022-11-14T04:33:24.900Z,76.27
2022-11-14T04:35:53.561Z,79.77
2022-11-14T04:38:22.222Z,91.67
2022-11-14T04:40:53.135Z,67.47
2022-11-14T04:43:22.511Z,71.17
2022-11-14T04:45:51.149Z,87.50
2022-11-14T04:48:19.835Z,74.00
2022-11-14T04:50:48.646Z,77.90
2022-11-14T04:53:17.313Z,74.20
2022-11-14T04:55:47.112Z,76.60
2022-11-14T04:58:17.220Z,79.33
2022-11-14T05:00:45.848Z,74.93
2022-11-14T05:03:14.439Z,77.33
2022-11-14T05:05:43.382Z,75.30
2022-11-14T05:08:12.003Z,71.70
2022-11-14T05:10:44.699Z,79.73
2022-11-14T05:13:13.798Z,92.73
2022-11-14T05:15:43.908Z,82.47
2022-11-14T05:18:12.673Z,84.10
2022-11-14T05:20:41.357Z,89.20
2022-11-14T05:23:19.958Z,90.97
2022-11-14T05:25:48.704Z,83.73
2022-11-14T05:28:17.427Z,89.27
2022-11-14T05:30:47.543Z,87.37
2022-11-14T05:33:16.299Z,85.33
2022-11-14T05:35:44.974Z,84.67
2022-11-14T05:38:13.661Z,84.90
2022-11-14T05:40:42.311Z,92.53
2022-11-14T05:43:11.034Z,99.80
2022-11-14T05:45:39.743Z,84.27
2022-11-14T05:48:09.941Z,97.27
2022-11-14T05:50:38.601Z,89.83
2022-11-14T05:53:07.250Z,83.83
2022-11-14T05:55:35.993Z,81.07
2022-11-14T05:58:04.911Z,80.27
2022-11-14T06:00:39.480Z,82.97
2022-11-14T06:03:13.947Z,90.67
2022-11-14T06:05:43.043Z,95.23
2022-11-14T06:08:11.903Z,80.83
2022-11-14T06:10:40.739Z,77.40
2022-11-14T06:13:09.510Z,89.07
2022-11-14T06:15:38.175Z,77.83
2022-11-14T06:18:06.874Z,87.87
2022-11-14T06:20:38.076Z,79.30
2022-11-14T06:23:06.780Z,78.50
2022-11-14T06:25:35.571Z,78.90
2022-11-14T06:28:04.262Z,70.23
2022-11-14T06:30:33.145Z,76.17
2022-11-14T06:33:01.891Z,78.47
2022-11-14T06:35:33.316Z,90.77
2022-11-14T06:38:03.508Z,88.47
2022-11-14T06:40:32.213Z,79.23
2022-11-14T06:43:00.927Z,76.53
2022-11-14T06:45:29.830Z,79.27
2022-11-14T06:48:01.129Z,79.17
2022-11-14T06:50:29.983Z,72.80
2022-11-14T06:52:59.555Z,73.20
2022-11-14T06:55:29.657Z,76.80
2022-11-14T06:57:58.362Z,80.03
2022-11-14T07:00:27.018Z,77.40
2022-11-14T07:02:55.782Z,77.70
2022-11-14T07:05:24.580Z,70.87
2022-11-14T07:07:53.484Z,71.27
2022-11-14T07:10:22.155Z,71.77
2022-11-14T07:12:52.279Z,72.10
2022-11-14T07:15:21.056Z,69.57
2022-11-14T07:17:49.859Z,66.47
2022-11-14T07:20:19.806Z,67.57
2022-11-14T07:22:49.047Z,65.20
2022-11-14T07:25:17.948Z,59.83
2022-11-14T07:27:46.890Z,62.30
2022-11-14T07:30:18.004Z,64.50
2022-11-14T07:32:46.818Z,64.40
2022-11-14T07:35:15.981Z,64.13
2022-11-14T07:37:44.954Z,62.47
2022-11-14T07:40:14.269Z,62.93
2022-11-14T07:42:43.073Z,58.20
2022-11-14T07:45:12.878Z,57.80
2022-11-14T07:47:42.936Z,64.20
2022-11-14T07:50:15.185Z,63.23
2022-11-14T07:52:52.551Z,58.60
2022-11-14T07:55:21.741Z,60.17
2022-11-14T07:57:53.633Z,65.93
2022-11-14T08:00:23.253Z,54.67
2022-11-14T08:02:53.640Z,59.67
2022-11-14T08:05:22.583Z,58.97
2022-11-14T08:07:52.799Z,55.57
2022-11-14T08:10:21.742Z,60.67
2022-11-14T08:13:24.865Z,58.20
2022-11-14T08:15:47.499Z,61.13
2022-11-14T08:18:17.653Z,61.17
2022-11-14T08:20:46.459Z,61.77
2022-11-14T08:23:15.321Z,59.03
2022-11-14T08:25:44.278Z,61.63
2022-11-14T08:28:12.984Z,66.40
2022-11-14T08:30:41.754Z,57.13
2022-11-14T08:33:10.761Z,57.57
2022-11-14T08:35:40.913Z,57.67
2022-11-14T08:38:09.948Z,53.73
2022-11-14T08:40:38.878Z,53.30
2022-11-14T08:43:07.581Z,55.63
2022-11-14T08:45:36.306Z,66.57
2022-11-14T08:48:05.962Z,64.40
2022-11-14T08:50:34.753Z,54.50
2022-11-14T08:53:04.877Z,58.90
2022-11-14T08:55:33.625Z,60.17
2022-11-14T08:58:02.347Z,59.73
2022-11-14T09:00:31.098Z,57.37
2022-11-14T09:02:59.840Z,62.57
2022-11-14T09:05:28.631Z,51.37
2022-11-14T09:07:57.336Z,62.43
2022-11-14T09:10:27.701Z,59.30
2022-11-14T09:12:58.062Z,59.87
2022-11-14T09:15:28.299Z,57.43
2022-11-14T09:17:57.399Z,63.67
2022-11-14T09:20:32.384Z,54.37
2022-11-14T09:23:03.460Z,59.83
2022-11-14T09:25:33.797Z,54.80
2022-11-14T09:28:07.142Z,54.37
2022-11-14T09:30:37.034Z,52.97
2022-11-14T09:33:11.422Z,56.47
2022-11-14T09:35:41.498Z,60.47
2022-11-14T09:38:12.314Z,57.27
2022-11-14T09:40:53.939Z,50.93
2022-11-14T09:43:44.042Z,55.93
2022-11-14T09:46:22.271Z,49.17
2022-11-14T09:48:53.162Z,51.53
2022-11-14T09:51:23.950Z,46.10
2022-11-14T09:53:57.616Z,47.97
2022-11-14T09:56:28.740Z,44.43
2022-11-14T09:58:57.993Z,52.03
2022-11-14T10:01:38.131Z,45.90
2022-11-14T10:04:20.733Z,52.50
2022-11-14T10:06:58.123Z,53.57
2022-11-14T10:09:50.227Z,54.40
2022-11-14T10:12:26.556Z,48.23
2022-11-14T10:15:23.929Z,52.30
2022-11-14T10:18:16.080Z,58.10
2022-11-14T10:20:49.682Z,64.07
2022-11-14T10:23:30.582Z,46.20
2022-11-14T10:26:10.643Z,50.60
2022-11-14T10:28:56.100Z,52.53
2022-11-14T10:31:36.765Z,50.17
2022-11-14T10:34:10.474Z,58.00
2022-11-14T10:36:50.775Z,65.60
2022-11-14T10:39:24.685Z,56.17
2022-11-14T10:42:00.905Z,64.87
2022-11-14T10:44:39.665Z,65.90
2022-11-14T10:47:14.095Z,65.40
2022-11-14T10:49:43.903Z,68.30
2022-11-14T10:52:16.537Z,73.37
2022-11-14T10:54:48.933Z,63.50
2022-11-14T10:57:19.571Z,73.10
2022-11-14T10:59:50.428Z,71.17
2022-11-14T11:02:19.174Z,68.83
2022-11-14T11:04:47.871Z,59.70
2022-11-14T11:07:42.814Z,57.37
2022-11-14T11:10:39.908Z,55.40
2022-11-14T11:13:12.959Z,53.03
2022-11-14T11:15:44.172Z,54.23
2022-11-14T11:18:34.685Z,55.20
2022-11-14T11:21:09.962Z,54.13
2022-11-14T11:23:49.084Z,51.53
2022-11-14T11:26:24.640Z,51.30
2022-11-14T11:29:10.260Z,44.70
2022-11-14T11:31:54.268Z,45.53
2022-11-14T11:34:27.059Z,42.67
2022-11-14T11:37:00.357Z,43.13
2022-11-14T11:39:32.385Z,41.33
2022-11-14T11:42:09.843Z,40.70
2022-11-14T11:44:45.188Z,36.10
2022-11-14T11:47:18.619Z,36.80
2022-11-14T11:49:53.762Z,37.73
2022-11-14T11:52:32.689Z,39.13
2022-11-14T11:55:12.938Z,39.83
2022-11-14T11:57:45.619Z,38.83
2022-11-14T12:00:18.788Z,36.53
2022-11-14T12:02:51.040Z,37.70
2022-11-14T12:05:26.244Z,36.83
2022-11-14T12:08:04.472Z,37.80
2022-11-14T12:10:37.528Z,33.83
2022-11-14T12:13:34.264Z,37.40
2022-11-14T12:16:17.634Z,35.03
2022-11-14T12:19:23.716Z,34.50
2022-11-14T12:22:07.898Z,35.80
2022-11-14T12:24:54.850Z,35.00
2022-11-14T12:27:45.805Z,36.07
2022-11-14T12:30:19.067Z,36.80
2022-11-14T12:32:53.114Z,36.53
2022-11-14T12:35:26.823Z,36.23
2022-11-14T12:37:58.640Z,36.30
2022-11-14T12:40:31.065Z,35.43
2022-11-14T12:43:01.076Z,33.87
2022-11-14T12:45:58.952Z,33.93
2022-11-14T12:48:38.935Z,36.13
2022-11-14T12:51:52.943Z,34.97
2022-11-14T12:54:46.991Z,32.70
2022-11-14T12:57:39.323Z,35.27
2022-11-14T13:00:10.565Z,36.23
2022-11-14T13:03:16.097Z,36.13
2022-11-14T13:05:59.198Z,37.47
2022-11-14T13:08:56.615Z,38.07
2022-11-14T13:12:00.885Z,37.70
2022-11-14T13:14:48.448Z,37.43
2022-11-14T13:17:44.805Z,35.17
2022-11-14T13:20:47.982Z,37.70
2022-11-14T13:24:16.312Z,36.80
2022-11-14T13:26:50.503Z,37.43
2022-11-14T13:29:56.535Z,35.60
2022-11-14T13:33:08.146Z,37.47
2022-11-14T13:36:04.861Z,35.57
2022-11-14T13:39:12.104Z,37.33
2022-11-14T13:42:20.582Z,36.00
2022-11-14T13:45:22.944Z,36.23
2022-11-14T13:48:37.038Z,37.60
2022-11-14T13:51:41.764Z,34.43
2022-11-14T13:54:36.461Z,39.87
2022-11-14T13:57:52.087Z,34.27
2022-11-14T14:00:27.406Z,32.20
2022-11-14T14:03:34.289Z,30.90
2022-11-14T14:06:32.626Z,33.13
2022-11-14T14:09:23.495Z,30.17
2022-11-14T14:12:17.170Z,30.77
2022-11-14T14:15:07.283Z,32.03
2022-11-14T14:17:52.671Z,36.63
2022-11-14T14:20:39.195Z,27.63
2022-11-14T14:23:21.851Z,29.83
2022-11-14T14:26:00.816Z,28.80
2022-11-14T14:28:41.623Z,32.30
2022-11-14T14:31:20.162Z,31.37
2022-11-14T14:34:04.353Z,30.23
2022-11-14T14:36:33.096Z,30.37
2022-11-14T14:39:20.891Z,28.60
2022-11-14T14:41:51.090Z,32.87
2022-11-14T14:44:24.889Z,30.30
2022-11-14T14:46:55.654Z,29.27
2022-11-14T14:49:27.196Z,31.27
2022-11-14T14:51:58.765Z,32.47
2022-11-14T14:54:30.720Z,33.43
2022-11-14T14:57:03.028Z,31.77
2022-11-14T14:59:33.652Z,31.83
2022-11-14T15:02:04.426Z,33.13
2022-11-14T15:04:33.314Z,32.67
2022-11-14T15:07:03.306Z,32.57
2022-11-14T15:09:32.629Z,36.10
2022-11-14T15:12:03.074Z,33.37
2022-11-14T15:14:35.971Z,31.63
2022-11-14T15:17:06.570Z,31.20
2022-11-14T15:19:41.370Z,36.10
2022-11-14T15:22:25.890Z,31.17
2022-11-14T15:25:18.409Z,37.60
2022-11-14T15:27:49.868Z,36.83
2022-11-14T15:30:26.245Z,34.47
2022-11-14T15:32:59.230Z,66.80
2022-11-14T15:35:32.535Z,33.77
2022-11-14T15:38:41.892Z,36.10
2022-11-14T15:41:23.162Z,34.87
2022-11-14T15:43:53.872Z,36.10
2022-11-14T15:46:43.757Z,33.83
2022-11-14T15:49:25.627Z,36.70
2022-11-14T15:51:57.334Z,36.07
2022-11-14T15:54:28.780Z,37.13
2022-11-14T15:56:59.434Z,36.27
2022-11-14T15:59:30.759Z,34.93
2022-11-14T16:02:04.655Z,38.30
2022-11-14T16:04:37.291Z,48.90
2022-11-14T16:07:06.295Z,38.97
2022-11-14T16:09:35.169Z,44.00
2022-11-14T16:12:03.926Z,40.37
2022-11-14T16:14:33.848Z,39.67
2022-11-14T16:17:03.252Z,42.97
2022-11-14T16:19:35.611Z,37.93
2022-11-14T16:22:04.504Z,39.10
2022-11-14T16:24:34.390Z,39.20
2022-11-14T16:27:03.959Z,42.20
2022-11-14T16:29:32.750Z,35.80
2022-11-14T16:32:01.401Z,34.90
2022-11-14T16:34:30.096Z,36.10
2022-11-14T16:37:03.252Z,34.07
2022-11-14T16:39:52.114Z,34.60
2022-11-14T16:42:20.791Z,35.83
2022-11-14T16:44:50.965Z,36.60
2022-11-14T16:47:21.971Z,34.37
2022-11-14T16:49:51.725Z,39.57
2022-11-14T16:52:22.141Z,38.03
2022-11-14T16:54:51.045Z,40.37
2022-11-14T16:57:19.903Z,36.30
2022-11-14T16:59:48.775Z,39.23
2022-11-14T17:02:18.382Z,41.27
2022-11-14T17:04:47.868Z,37.13
2022-11-14T17:07:20.293Z,34.97
2022-11-14T17:09:53.340Z,37.00
2022-11-14T17:12:22.171Z,35.30
2022-11-14T17:14:51.061Z,34.77
2022-11-14T17:17:19.907Z,35.67
2022-11-14T17:19:49.037Z,33.67
2022-11-14T17:22:20.000Z,36.87
2022-11-14T17:24:49.019Z,37.50
2022-11-14T17:27:19.614Z,33.43
2022-11-14T17:29:48.568Z,33.67
2022-11-14T17:32:17.335Z,35.97
2022-11-14T17:34:46.065Z,36.93
2022-11-14T17:37:14.766Z,37.60
2022-11-14T17:39:43.544Z,40.80
2022-11-14T17:42:12.325Z,32.53
2022-11-14T17:44:42.701Z,36.77
2022-11-14T17:47:11.948Z,36.93
2022-11-14T17:49:41.877Z,35.87
2022-11-14T17:52:10.820Z,41.00
2022-11-14T17:54:43.107Z,33.60
2022-11-14T17:57:13.788Z,35.77
2022-11-14T17:59:44.087Z,37.70
2022-11-14T18:02:17.913Z,40.47
2022-11-14T18:04:47.732Z,39.40
2022-11-14T18:07:18.125Z,38.43
2022-11-14T18:09:46.980Z,39.63
2022-11-14T18:12:16.019Z,41.67
2022-11-14T18:14:46.583Z,40.00
2022-11-14T18:17:15.897Z,47.80
2022-11-14T18:19:45.276Z,41.30
2022-11-14T18:22:14.023Z,49.20
2022-11-14T18:24:47.908Z,46.40
2022-11-14T18:27:17.568Z,53.13
2022-11-14T18:29:48.529Z,48.40
2022-11-14T18:32:17.690Z,45.10
2022-11-14T18:34:46.793Z,46.60
2022-11-14T18:37:15.670Z,50.43
2022-11-14T18:39:44.693Z,52.80
2022-11-14T18:42:13.778Z,40.93
2022-11-14T18:44:43.402Z,44.50
2022-11-14T18:47:24.420Z,43.50
2022-11-14T18:49:58.646Z,49.50
2022-11-14T18:52:27.883Z,52.17
2022-11-14T18:54:56.673Z,48.30
2022-11-14T18:57:26.461Z,47.70
2022-11-14T19:00:00.300Z,53.57
2022-11-14T19:02:30.979Z,55.67
2022-11-14T19:05:00.190Z,52.83
2022-11-14T19:07:30.609Z,57.47
2022-11-14T19:10:00.884Z,55.70
2022-11-14T19:12:30.572Z,56.80
2022-11-14T19:15:00.735Z,57.47
2022-11-14T19:17:31.482Z,55.77
2022-11-14T19:20:01.333Z,53.70
2022-11-14T19:22:33.243Z,60.10
2022-11-14T19:25:03.345Z,58.00
2022-11-14T19:27:36.137Z,51.43
2022-11-14T19:30:06.247Z,56.37
2022-11-14T19:32:37.423Z,57.73
2022-11-14T19:35:07.245Z,63.27
2022-11-14T19:37:36.093Z,56.87
2022-11-14T19:40:06.616Z,57.20
2022-11-14T19:42:36.344Z,51.97
2022-11-14T19:45:05.942Z,53.03
2022-11-14T19:47:37.599Z,52.17
2022-11-14T19:50:07.301Z,53.63
2022-11-14T19:52:36.395Z,63.80
2022-11-14T19:55:05.847Z,56.77
2022-11-14T19:57:35.061Z,55.40
2022-11-14T20:00:04.002Z,62.50
2022-11-14T20:02:33.772Z,58.37
2022-11-14T20:05:04.459Z,62.27
2022-11-14T20:07:37.657Z,53.40
2022-11-14T20:10:09.498Z,55.17
2022-11-14T20:12:39.177Z,54.60
2022-11-14T20:15:11.772Z,56.63
2022-11-14T20:17:41.170Z,54.97
2022-11-14T20:20:13.443Z,59.03
2022-11-14T20:22:42.964Z,66.83
2022-11-14T20:25:16.869Z,59.50
2022-11-14T20:27:46.111Z,57.03
2022-11-14T20:30:15.568Z,57.40
2022-11-14T20:32:45.605Z,66.40
2022-11-14T20:35:16.737Z,68.80
2022-11-14T20:37:46.463Z,55.73
2022-11-14T20:40:15.509Z,57.90
2022-11-14T20:42:48.695Z,58.70
2022-11-14T20:45:20.269Z,64.80
2022-11-14T20:47:51.112Z,67.47
2022-11-14T20:50:29.026Z,61.23
2022-11-14T20:53:08.528Z,68.73
2022-11-14T20:55:45.665Z,60.13
2022-11-14T20:58:17.981Z,59.70
2022-11-14T21:00:47.816Z,67.90
2022-11-14T21:03:20.871Z,66.93
2022-11-14T21:06:01.459Z,68.67
2022-11-14T21:08:47.713Z,67.23
2022-11-14T21:11:31.564Z,68.87
2022-11-14T21:14:10.088Z,59.63
2022-11-14T21:16:40.799Z,63.57
2022-11-14T21:19:09.531Z,66.87
2022-11-14T21:21:40.805Z,63.60
2022-11-14T21:24:12.082Z,77.47
2022-11-14T21:26:41.647Z,75.63
2022-11-14T21:29:35.428Z,72.30
2022-11-14T21:32:12.365Z,70.77
2022-11-14T21:34:41.794Z,67.63
2022-11-14T21:37:12.137Z,72.03
2022-11-14T21:39:40.919Z,81.60
2022-11-14T21:42:12.944Z,71.67
2022-11-14T21:44:44.897Z,76.50
2022-11-14T21:47:13.934Z,85.13
2022-11-14T21:49:43.067Z,93.80
2022-11-14T21:52:13.394Z,87.33
2022-11-14T21:54:42.395Z,84.70
2022-11-14T21:57:11.350Z,83.10
2022-11-14T21:59:40.304Z,73.17
2022-11-14T22:02:31.352Z,76.63
2022-11-14T22:05:00.509Z,79.40
2022-11-14T22:07:30.968Z,75.10
2022-11-14T22:09:59.816Z,72.43
2022-11-14T22:12:28.622Z,79.30
2022-11-14T22:14:57.371Z,75.67
2022-11-14T22:17:27.613Z,81.87
2022-11-14T22:19:56.264Z,70.33
2022-11-14T22:22:25.171Z,82.60
2022-11-14T22:24:55.518Z,72.93
2022-11-14T22:27:24.336Z,79.90
2022-11-14T22:29:53.480Z,75.90
2022-11-14T22:32:22.419Z,80.40
2022-11-14T22:34:51.071Z,72.00
2022-11-14T22:37:20.235Z,74.13
2022-11-14T22:39:48.976Z,79.77
2022-11-14T22:42:19.839Z,82.17
2022-11-14T22:44:49.222Z,71.80
2022-11-14T22:47:18.187Z,73.87
2022-11-14T22:49:46.962Z,76.67
2022-11-14T22:52:15.844Z,73.33
2022-11-14T22:54:44.805Z,73.63
2022-11-14T22:57:14.443Z,74.27
2022-11-14T22:59:44.712Z,70.83
2022-11-14T23:02:13.402Z,78.17
2022-11-14T23:04:42.040Z,79.10
2022-11-14T23:07:10.808Z,78.83
2022-11-14T23:09:39.643Z,77.57
2022-11-14T23:12:08.565Z,84.97
2022-11-14T23:14:37.409Z,75.27
2022-11-14T23:17:07.729Z,84.27
2022-11-14T23:19:36.895Z,86.93
2022-11-14T23:22:05.685Z,81.53
2022-11-14T23:24:34.373Z,93.87
2022-11-14T23:27:03.038Z,89.90
2022-11-14T23:33:05.206Z,76.97
2022-11-14T23:35:33.989Z,82.87
2022-11-14T23:38:05.228Z,78.93
2022-11-14T23:43:48.509Z,74.63
2022-11-14T23:46:17.333Z,88.37
2022-11-14T23:48:47.634Z,78.93
2022-11-14T23:51:17.709Z,74.90
2022-11-14T23:53:47.115Z,74.50
2022-11-14T23:56:17.220Z,70.57
2022-11-14T23:58:46.031Z,77.20
